Time;durP1;ratioP1;P1;durP2;ratioP2;P2;SDS_P1;SDS_P2;PMS_P1;PMS_P2;Temp;Humidity;BMP_temperature;BMP_pressure;BME280_temperature;BME280_humidity;BME280_pressure;Samples;Min_cycle;Max_cycle;Signal;HPM_P1;HPM_P2
2023/08/27 00:02:03;;;;;;;12.10;7.73;;;18.30;38.80;;;;;;5013302;28;20995;-65
2023/08/27 00:04:30;;;;;;;8.53;6.80;;;18.30;38.80;;;;;;5010202;28;20519;-64
2023/08/27 00:06:58;;;;;;;13.57;7.90;;;18.30;38.80;;;;;;5007725;28;20460;-64
2023/08/27 00:09:25;;;;;;;10.83;7.50;;;18.20;38.70;;;;;;5003544;28;20496;-65
2023/08/27 00:11:52;;;;;;;9.60;6.97;;;18.20;38.80;;;;;;5008049;28;20461;-64
2023/08/27 00:14:18;;;;;;;10.97;7.40;;;18.30;38.80;;;;;;5007919;28;20506;-64
2023/08/27 00:16:45;;;;;;;8.30;6.40;;;18.30;38.80;;;;;;5002075;28;20459;-64
2023/08/27 00:19:12;;;;;;;8.20;6.83;;;18.20;38.90;;;;;;5010868;28;20984;-65
2023/08/27 00:21:38;;;;;;;7.40;5.67;;;18.20;38.90;;;;;;5006453;28;20456;-64
2023/08/27 00:24:07;;;;;;;8.50;6.10;;;18.20;38.80;;;;;;5005476;28;20495;-65
2023/08/27 00:26:34;;;;;;;11.10;6.70;;;18.30;38.90;;;;;;5010730;28;20460;-64
2023/08/27 00:29:01;;;;;;;7.90;6.07;;;18.30;39.00;;;;;;5008245;28;20490;-65
2023/08/27 00:31:27;;;;;;;10.57;6.53;;;18.30;38.80;;;;;;5006671;28;20483;-64
2023/08/27 00:33:54;;;;;;;8.70;6.60;;;18.30;38.80;;;;;;5008379;28;20480;-64
2023/08/27 00:36:21;;;;;;;11.30;6.90;;;18.40;38.70;;;;;;5005139;28;20816;-64
2023/08/27 00:38:48;;;;;;;10.90;7.23;;;18.40;38.90;;;;;;5007595;28;20494;-65
2023/08/27 00:41:16;;;;;;;9.70;6.30;;;18.40;38.80;;;;;;5011073;28;20463;-64
2023/08/27 00:43:43;;;;;;;8.80;6.27;;;18.40;38.80;;;;;;5007316;28;20843;-64
2023/08/27 00:46:10;;;;;;;8.97;7.10;;;18.50;38.70;;;;;;5005829;28;20460;-64
2023/08/27 00:48:37;;;;;;;8.30;6.50;;;18.50;38.70;;;;;;5009114;28;20467;-64
2023/08/27 00:51:04;;;;;;;9.90;6.73;;;18.50;38.60;;;;;;5005524;28;20467;-64
2023/08/27 00:53:31;;;;;;;11.00;6.00;;;18.50;38.50;;;;;;5006967;28;20490;-65
2023/08/27 00:55:58;;;;;;;10.47;5.70;;;18.50;38.50;;;;;;5006444;28;20467;-64
2023/08/27 00:58:26;;;;;;;9.60;6.93;;;18.60;38.30;;;;;;5005029;28;20485;-65
2023/08/27 01:00:53;;;;;;;9.00;6.27;;;18.60;38.30;;;;;;5004965;28;20483;-65
2023/08/27 01:03:20;;;;;;;9.67;6.10;;;18.60;38.20;;;;;;5006213;28;20495;-65
2023/08/27 01:05:46;;;;;;;11.20;6.00;;;18.60;38.20;;;;;;5005928;28;20465;-64
2023/08/27 01:08:21;;;;;;;8.97;5.83;;;18.60;38.70;;;;;;5009998;28;20463;-65
2023/08/27 01:10:55;;;;;;;8.27;6.10;;;18.60;38.20;;;;;;5006180;28;20490;-65
2023/08/27 01:13:33;;;;;;;8.20;5.80;;;18.60;38.00;;;;;;5007020;28;20503;-65
2023/08/27 01:16:02;;;;;;;9.30;5.90;;;18.70;38.00;;;;;;5007018;28;20453;-64
2023/08/27 01:18:30;;;;;;;10.43;6.27;;;18.70;37.90;;;;;;5008211;28;20488;-64
2023/08/27 01:20:57;;;;;;;9.97;6.23;;;18.70;37.90;;;;;;5005829;28;20456;-64
2023/08/27 01:23:25;;;;;;;9.30;7.03;;;18.70;37.90;;;;;;5008321;28;20487;-64
2023/08/27 01:25:54;;;;;;;8.47;6.70;;;18.70;37.90;;;;;;5010585;28;20464;-65
2023/08/27 01:28:26;;;;;;;10.73;7.30;;;18.70;38.00;;;;;;5009213;28;20553;-65
2023/08/27 01:31:00;;;;;;;10.60;6.87;;;18.70;38.10;;;;;;5004208;28;20473;-64
2023/08/27 01:33:29;;;;;;;10.80;6.90;;;18.70;38.00;;;;;;5004638;28;20479;-64
2023/08/27 01:35:57;;;;;;;9.70;7.63;;;18.70;37.80;;;;;;5009005;28;20463;-64
2023/08/27 01:38:25;;;;;;;11.13;7.53;;;18.70;38.00;;;;;;5008995;28;20515;-65
2023/08/27 01:40:52;;;;;;;9.17;6.90;;;18.80;37.90;;;;;;5005534;28;20471;-64
2023/08/27 01:43:18;;;;;;;16.40;7.50;;;18.80;37.90;;;;;;5006142;28;20480;-64
2023/08/27 01:45:45;;;;;;;9.40;7.77;;;18.80;37.80;;;;;;5008371;28;20482;-64
2023/08/27 01:48:12;;;;;;;9.27;7.57;;;18.80;37.70;;;;;;5008673;28;20471;-64
2023/08/27 01:50:39;;;;;;;12.73;8.47;;;18.80;37.70;;;;;;5002816;28;20464;-64
2023/08/27 01:53:05;;;;;;;12.63;9.50;;;18.80;37.60;;;;;;5006336;28;20480;-64
2023/08/27 01:55:34;;;;;;;10.40;8.33;;;18.90;37.60;;;;;;5002403;28;20496;-63
2023/08/27 01:58:01;;;;;;;17.50;8.97;;;18.90;37.60;;;;;;5005197;28;20488;-64
2023/08/27 02:00:27;;;;;;;15.70;9.30;;;19.00;37.40;;;;;;5006969;28;20492;-64
2023/08/27 02:02:54;;;;;;;11.13;8.10;;;19.00;37.40;;;;;;5005427;28;21262;-64
2023/08/27 02:05:21;;;;;;;11.37;8.50;;;19.00;37.50;;;;;;5006855;28;20456;-64
2023/08/27 02:07:47;;;;;;;10.73;8.50;;;19.00;37.50;;;;;;5005021;28;20463;-65
2023/08/27 02:10:14;;;;;;;10.40;8.80;;;18.90;37.50;;;;;;5004075;28;20452;-64
2023/08/27 02:12:42;;;;;;;10.13;9.00;;;18.90;37.60;;;;;;5007259;28;20501;-64
2023/08/27 02:15:09;;;;;;;10.80;8.47;;;18.90;37.80;;;;;;5008252;28;20456;-64
2023/08/27 02:17:37;;;;;;;11.10;8.97;;;18.80;37.70;;;;;;5005099;28;20456;-64
2023/08/27 02:20:09;;;;;;;11.43;8.67;;;18.80;37.70;;;;;;5005362;28;20506;-64
2023/08/27 02:22:36;;;;;;;12.70;7.87;;;18.80;37.80;;;;;;5004078;28;20463;-64
2023/08/27 02:25:03;;;;;;;11.13;8.37;;;18.80;37.80;;;;;;5004245;28;20980;-64
2023/08/27 02:27:29;;;;;;;11.80;8.63;;;18.80;37.80;;;;;;4999030;28;20842;-64
2023/08/27 02:29:57;;;;;;;10.90;8.60;;;18.80;37.80;;;;;;5003791;28;20468;-64
2023/08/27 02:32:24;;;;;;;10.17;7.20;;;18.80;37.80;;;;;;5001454;28;20472;-64
2023/08/27 02:34:51;;;;;;;9.33;7.40;;;18.90;37.80;;;;;;5003965;28;20487;-64
2023/08/27 02:37:18;;;;;;;9.60;8.43;;;18.80;37.90;;;;;;5006974;28;20460;-63
2023/08/27 02:39:45;;;;;;;10.23;8.83;;;18.80;37.80;;;;;;5006384;28;21000;-64
2023/08/27 02:42:11;;;;;;;11.50;9.33;;;18.80;37.80;;;;;;4998574;28;20471;-64
2023/08/27 02:44:38;;;;;;;16.03;8.77;;;18.80;38.10;;;;;;5002267;28;20494;-65
2023/08/27 02:47:06;;;;;;;12.50;9.00;;;18.80;38.60;;;;;;5004297;28;20471;-64
2023/08/27 02:49:33;;;;;;;12.33;8.83;;;18.80;37.90;;;;;;5005246;28;20467;-65
2023/08/27 02:51:59;;;;;;;10.70;9.20;;;18.90;38.00;;;;;;5004260;28;20471;-64
2023/08/27 02:54:26;;;;;;;12.53;8.33;;;18.80;38.00;;;;;;5003918;28;20484;-63
2023/08/27 02:56:53;;;;;;;11.80;8.80;;;18.80;38.00;;;;;;5006271;28;20459;-64
2023/08/27 02:59:20;;;;;;;12.80;8.13;;;18.80;38.00;;;;;;5006575;28;21142;-64
2023/08/27 03:01:46;;;;;;;11.80;8.33;;;18.90;38.00;;;;;;5019314;28;20483;-63
2023/08/27 03:04:15;;;;;;;10.33;8.90;;;18.90;38.00;;;;;;5025748;28;20482;-63
2023/08/27 03:06:41;;;;;;;13.20;10.10;;;18.90;38.00;;;;;;5020900;28;20463;-64
2023/08/27 03:09:08;;;;;;;9.27;7.73;;;18.90;38.00;;;;;;5025703;28;20455;-64
2023/08/27 03:11:35;;;;;;;10.33;8.07;;;18.90;38.00;;;;;;5027758;28;21077;-64
2023/08/27 03:14:02;;;;;;;9.73;8.07;;;18.90;38.00;;;;;;5025429;28;21010;-63
2023/08/27 03:16:28;;;;;;;11.83;8.37;;;18.90;38.00;;;;;;5030559;28;20469;-64
2023/08/27 03:18:55;;;;;;;11.70;9.10;;;18.90;38.40;;;;;;5029514;28;20530;-64
2023/08/27 03:21:23;;;;;;;10.77;8.57;;;18.90;38.10;;;;;;5027716;28;20816;-64
2023/08/27 03:23:50;;;;;;;14.00;9.83;;;19.00;38.20;;;;;;5023000;28;20487;-64
2023/08/27 03:26:17;;;;;;;11.37;9.50;;;18.90;38.20;;;;;;5022020;28;20459;-64
2023/08/27 03:28:44;;;;;;;13.47;10.50;;;18.90;38.10;;;;;;5030910;28;20465;-65
2023/08/27 03:31:10;;;;;;;14.10;9.90;;;19.00;38.30;;;;;;5020553;28;20983;-65
2023/08/27 03:33:37;;;;;;;12.13;9.63;;;18.90;38.30;;;;;;5007066;28;20510;-64
2023/08/27 03:36:05;;;;;;;12.57;10.00;;;19.00;38.10;;;;;;5005067;28;20470;-64
2023/08/27 03:38:33;;;;;;;12.87;10.37;;;19.00;38.10;;;;;;5009948;28;20466;-64
2023/08/27 03:40:59;;;;;;;13.00;11.10;;;18.90;38.00;;;;;;5008282;28;21015;-64
2023/08/27 03:43:26;;;;;;;14.67;11.57;;;19.00;38.00;;;;;;5006402;28;20483;-63
2023/08/27 03:45:53;;;;;;;12.23;10.20;;;18.90;38.10;;;;;;5009135;28;20472;-64
2023/08/27 03:48:21;;;;;;;14.13;10.33;;;18.90;37.90;;;;;;5007867;28;20471;-64
2023/08/27 03:50:48;;;;;;;14.30;11.73;;;18.90;37.90;;;;;;5010737;28;20455;-64
2023/08/27 03:53:14;;;;;;;14.23;11.47;;;18.90;38.10;;;;;;5006267;28;20586;-64
2023/08/27 03:55:43;;;;;;;14.80;11.07;;;18.90;38.00;;;;;;5010850;28;20459;-64
2023/08/27 03:58:11;;;;;;;14.40;11.53;;;19.00;38.70;;;;;;5009994;28;20526;-64
2023/08/27 04:00:38;;;;;;;14.50;10.50;;;19.00;38.00;;;;;;5011749;28;20476;-64
2023/08/27 04:03:05;;;;;;;15.17;11.53;;;19.00;38.00;;;;;;5009499;28;20491;-64
2023/08/27 04:05:32;;;;;;;15.03;11.40;;;18.90;37.90;;;;;;5008463;28;20455;-64
2023/08/27 04:07:59;;;;;;;13.37;10.73;;;19.00;37.90;;;;;;5006239;28;20456;-64
2023/08/27 04:10:25;;;;;;;12.53;10.07;;;18.90;37.90;;;;;;5007157;28;20459;-64
2023/08/27 04:12:54;;;;;;;12.83;10.10;;;18.90;37.90;;;;;;5001025;28;20484;-64
2023/08/27 04:15:21;;;;;;;14.33;10.67;;;18.90;37.90;;;;;;5009890;28;21277;-64
2023/08/27 04:17:47;;;;;;;16.00;10.50;;;18.90;37.90;;;;;;5006993;28;20467;-64
2023/08/27 04:20:14;;;;;;;16.47;11.77;;;18.90;38.00;;;;;;5008750;28;20476;-64
2023/08/27 04:22:41;;;;;;;16.63;10.10;;;18.90;37.90;;;;;;5007465;28;20468;-64
2023/08/27 04:25:08;;;;;;;12.40;9.80;;;18.90;38.00;;;;;;5004456;28;20464;-65
2023/08/27 04:27:35;;;;;;;12.90;10.53;;;18.90;38.10;;;;;;5010546;28;20471;-64
2023/08/27 04:30:04;;;;;;;17.50;9.70;;;18.90;38.10;;;;;;5006845;28;20476;-64
2023/08/27 04:32:31;;;;;;;15.10;11.63;;;18.90;38.20;;;;;;5010732;28;20475;-64
2023/08/27 04:34:57;;;;;;;11.50;9.50;;;18.90;38.00;;;;;;5012089;28;20463;-64
2023/08/27 04:37:25;;;;;;;16.00;12.63;;;18.90;38.10;;;;;;5014189;28;20459;-65
2023/08/27 04:39:51;;;;;;;13.83;10.27;;;19.00;38.00;;;;;;5009389;28;20480;-64
2023/08/27 04:42:18;;;;;;;15.47;11.80;;;19.00;37.90;;;;;;5013680;28;20472;-65
2023/08/27 04:44:45;;;;;;;12.37;9.70;;;19.00;37.90;;;;;;5008571;28;20476;-64
2023/08/27 04:47:13;;;;;;;14.13;11.57;;;19.00;37.90;;;;;;5014162;28;20460;-65
2023/08/27 04:49:40;;;;;;;13.63;11.33;;;19.00;37.80;;;;;;5012117;28;20448;-65
2023/08/27 04:52:06;;;;;;;15.23;11.00;;;19.00;37.70;;;;;;5013265;28;20471;-65
2023/08/27 04:54:33;;;;;;;14.87;10.23;;;19.00;37.70;;;;;;5008562;28;20980;-65
2023/08/27 04:57:00;;;;;;;12.87;10.87;;;19.00;37.80;;;;;;5004718;28;20456;-64
2023/08/27 04:59:27;;;;;;;13.33;10.60;;;19.00;37.70;;;;;;5010871;28;20478;-65
2023/08/27 05:01:54;;;;;;;14.73;10.87;;;19.00;37.80;;;;;;5012726;28;20468;-65
2023/08/27 05:04:23;;;;;;;12.83;10.23;;;19.00;37.80;;;;;;5011705;28;20489;-65
2023/08/27 05:06:50;;;;;;;12.77;10.50;;;19.00;37.80;;;;;;5013587;28;20460;-64
2023/08/27 05:09:17;;;;;;;13.00;10.00;;;19.10;37.80;;;;;;5009561;28;20460;-65
2023/08/27 05:11:43;;;;;;;11.90;9.57;;;19.00;37.60;;;;;;5007785;28;20459;-64
2023/08/27 05:14:10;;;;;;;12.50;9.80;;;19.10;37.50;;;;;;5012389;28;20959;-65
2023/08/27 05:16:37;;;;;;;14.70;10.70;;;19.00;37.50;;;;;;5012119;28;20494;-64
2023/08/27 05:19:03;;;;;;;12.53;10.00;;;19.00;37.60;;;;;;5011464;28;21151;-64
2023/08/27 05:21:31;;;;;;;13.03;9.10;;;19.00;37.50;;;;;;5010529;28;20486;-64
2023/08/27 05:23:58;;;;;;;12.47;8.80;;;19.00;37.60;;;;;;5006885;28;20492;-64
2023/08/27 05:26:25;;;;;;;11.97;9.40;;;19.10;37.60;;;;;;5009891;28;20455;-64
2023/08/27 05:28:52;;;;;;;10.60;8.20;;;19.10;37.50;;;;;;5006892;28;20479;-65
2023/08/27 05:31:18;;;;;;;9.40;7.40;;;19.00;37.60;;;;;;5012337;28;20486;-64
2023/08/27 05:33:45;;;;;;;10.87;8.30;;;19.00;37.60;;;;;;5007233;28;20479;-63
2023/08/27 05:36:12;;;;;;;9.67;7.67;;;19.00;37.70;;;;;;5013457;28;20459;-65
2023/08/27 05:38:40;;;;;;;9.70;6.43;;;19.00;37.70;;;;;;5013186;28;20490;-63
2023/08/27 05:41:07;;;;;;;8.10;6.30;;;19.00;37.40;;;;;;5012646;28;20476;-64
2023/08/27 05:43:35;;;;;;;7.83;5.50;;;19.00;37.60;;;;;;5009064;28;20819;-65
2023/08/27 05:46:01;;;;;;;7.00;4.33;;;19.00;37.20;;;;;;5011788;28;20463;-64
2023/08/27 05:48:28;;;;;;;6.13;4.03;;;19.00;36.30;;;;;;5010903;28;20510;-64
2023/08/27 05:50:55;;;;;;;6.40;4.50;;;19.00;36.40;;;;;;5005654;28;20464;-64
2023/08/27 05:53:21;;;;;;;5.73;3.40;;;19.10;36.20;;;;;;5009718;28;20483;-64
2023/08/27 05:55:49;;;;;;;6.70;3.20;;;19.10;36.30;;;;;;5010835;28;20470;-64
2023/08/27 05:58:16;;;;;;;6.07;3.00;;;19.10;35.90;;;;;;5012760;28;20460;-63
2023/08/27 06:00:43;;;;;;;5.00;2.83;;;19.00;35.80;;;;;;5006936;28;20874;-64
2023/08/27 06:03:10;;;;;;;6.03;2.70;;;19.10;35.90;;;;;;5002840;28;21196;-64
2023/08/27 06:05:37;;;;;;;8.50;2.80;;;19.10;35.60;;;;;;5011623;28;20835;-64
2023/08/27 06:08:04;;;;;;;4.73;1.70;;;19.10;35.40;;;;;;5009462;28;20452;-64
2023/08/27 06:10:31;;;;;;;6.37;2.80;;;19.10;35.30;;;;;;5006040;28;20496;-63
2023/08/27 06:12:59;;;;;;;7.97;2.87;;;19.10;35.30;;;;;;5005890;28;20482;-64
2023/08/27 06:15:28;;;;;;;4.47;2.40;;;19.20;35.40;;;;;;5008637;28;20452;-63
2023/08/27 06:17:55;;;;;;;4.60;2.70;;;19.20;35.30;;;;;;5010058;28;20928;-63
2023/08/27 06:20:21;;;;;;;8.13;2.70;;;19.20;34.60;;;;;;5008085;28;20480;-64
2023/08/27 06:22:48;;;;;;;5.00;2.80;;;19.20;34.80;;;;;;5006037;28;20475;-64
2023/08/27 06:25:15;;;;;;;5.87;2.73;;;19.20;34.80;;;;;;5007958;28;20456;-64
2023/08/27 06:27:42;;;;;;;4.63;2.57;;;19.20;34.80;;;;;;5008397;28;20463;-64
2023/08/27 06:30:10;;;;;;;5.60;3.00;;;19.20;35.10;;;;;;5010444;28;20827;-64
2023/08/27 06:32:37;;;;;;;5.30;3.50;;;19.20;35.30;;;;;;5010118;28;20468;-65
2023/08/27 06:37:33;;;;;;;6.77;3.30;;;19.30;35.30;;;;;;5005541;28;20500;-67
2023/08/27 06:40:00;;;;;;;6.90;3.30;;;19.30;35.30;;;;;;5010643;28;20845;-67
2023/08/27 06:42:26;;;;;;;5.07;2.90;;;19.30;35.10;;;;;;5011419;28;20463;-67
2023/08/27 06:44:53;;;;;;;6.80;3.60;;;19.30;35.00;;;;;;5006798;28;21014;-68
2023/08/27 06:47:21;;;;;;;8.00;5.43;;;19.30;35.00;;;;;;5006252;28;20464;-67
2023/08/27 06:49:50;;;;;;;5.20;3.10;;;19.40;35.00;;;;;;5007353;28;20548;-67
2023/08/27 06:52:18;;;;;;;6.83;3.33;;;19.40;35.00;;;;;;5005245;28;20459;-67
2023/08/27 06:54:45;;;;;;;5.07;3.17;;;19.30;34.90;;;;;;5002878;28;20573;-69
2023/08/27 06:57:12;;;;;;;4.90;3.07;;;19.40;34.80;;;;;;5008359;28;20456;-69
2023/08/27 06:59:39;;;;;;;6.60;3.07;;;19.40;34.70;;;;;;5005252;28;20466;-70
2023/08/27 07:02:06;;;;;;;5.90;3.07;;;19.40;34.70;;;;;;5004789;28;20500;-69
2023/08/27 07:04:34;;;;;;;5.50;2.67;;;19.50;34.70;;;;;;5006535;28;20480;-69
2023/08/27 07:07:00;;;;;;;4.97;2.73;;;19.50;34.30;;;;;;5006537;28;20467;-69
2023/08/27 07:09:27;;;;;;;4.97;2.90;;;19.50;33.90;;;;;;5002785;28;20475;-69
2023/08/27 07:11:54;;;;;;;4.70;1.83;;;19.60;33.60;;;;;;5004791;28;20574;-69
2023/08/27 07:14:21;;;;;;;5.40;2.50;;;19.60;33.60;;;;;;5004660;28;20995;-69
2023/08/27 07:16:48;;;;;;;6.37;2.47;;;19.50;33.40;;;;;;5006246;28;20452;-69
2023/08/27 07:19:14;;;;;;;5.80;2.67;;;19.50;33.10;;;;;;5004046;28;20983;-69
2023/08/27 07:21:43;;;;;;;4.33;2.33;;;19.50;33.10;;;;;;5006101;28;20530;-70
2023/08/27 07:24:13;;;;;;;5.33;2.30;;;19.50;33.10;;;;;;5005576;28;20490;-69
2023/08/27 07:26:40;;;;;;;4.20;1.80;;;19.60;33.00;;;;;;5002762;28;20459;-69
2023/08/27 07:29:07;;;;;;;4.53;2.30;;;19.60;33.20;;;;;;5005263;28;20490;-69
2023/08/27 07:31:33;;;;;;;5.63;2.20;;;19.70;32.90;;;;;;5003629;28;20476;-69
2023/08/27 07:34:00;;;;;;;5.20;2.40;;;19.70;32.70;;;;;;5007852;28;20487;-69
2023/08/27 07:36:27;;;;;;;6.83;1.60;;;19.80;32.60;;;;;;5009010;28;20468;-69
2023/08/27 07:38:56;;;;;;;4.70;2.20;;;19.90;32.40;;;;;;5010610;28;20827;-69
2023/08/27 07:41:24;;;;;;;6.23;2.03;;;20.00;31.80;;;;;;5010251;28;20487;-69
2023/08/27 07:43:50;;;;;;;6.53;2.40;;;20.00;31.50;;;;;;5008298;28;20475;-69
2023/08/27 07:46:17;;;;;;;4.60;2.13;;;20.00;31.10;;;;;;5011042;28;20468;-69
2023/08/27 07:48:44;;;;;;;4.77;2.30;;;20.10;30.90;;;;;;5009591;28;20470;-69
2023/08/27 07:51:10;;;;;;;4.67;2.40;;;20.10;30.80;;;;;;5007021;28;20463;-69
2023/08/27 07:53:37;;;;;;;5.60;2.07;;;20.10;30.60;;;;;;5008943;28;20483;-69
2023/08/27 07:56:05;;;;;;;3.90;2.07;;;20.10;30.10;;;;;;5006177;28;20461;-69
2023/08/27 07:58:32;;;;;;;4.50;2.20;;;20.10;30.00;;;;;;5005392;28;20467;-69
2023/08/27 08:01:00;;;;;;;4.47;1.80;;;20.00;30.00;;;;;;5008637;28;20475;-69
2023/08/27 08:03:27;;;;;;;5.77;2.37;;;20.00;30.30;;;;;;5008886;28;20855;-69
2023/08/27 08:05:53;;;;;;;4.93;2.20;;;20.00;30.50;;;;;;5010095;28;20549;-69
2023/08/27 08:08:20;;;;;;;5.23;2.40;;;20.00;30.50;;;;;;5008609;28;21203;-69
2023/08/27 08:10:47;;;;;;;4.13;1.90;;;20.00;30.50;;;;;;5007253;28;20478;-69
2023/08/27 08:13:15;;;;;;;5.70;1.97;;;20.10;30.50;;;;;;5010749;28;20488;-69
2023/08/27 08:15:41;;;;;;;4.40;1.73;;;20.10;30.30;;;;;;5009483;28;21019;-69
2023/08/27 08:18:08;;;;;;;4.80;1.93;;;20.20;30.00;;;;;;5009674;28;20817;-69
2023/08/27 08:20:35;;;;;;;5.73;2.90;;;20.20;29.60;;;;;;5007612;28;20479;-69
2023/08/27 08:23:01;;;;;;;5.00;1.90;;;20.20;29.40;;;;;;5009642;28;20554;-69
2023/08/27 08:25:28;;;;;;;5.70;2.20;;;20.20;29.10;;;;;;5010665;28;20502;-69
2023/08/27 08:27:55;;;;;;;5.30;2.10;;;20.10;29.10;;;;;;5010082;28;20996;-69
2023/08/27 08:30:23;;;;;;;4.80;2.10;;;20.10;29.20;;;;;;5009497;28;20460;-69
2023/08/27 08:32:50;;;;;;;4.60;2.03;;;20.10;29.40;;;;;;5010415;28;20476;-69
2023/08/27 08:35:17;;;;;;;5.50;2.57;;;20.10;28.80;;;;;;5007150;28;20456;-69
2023/08/27 08:37:44;;;;;;;6.13;2.03;;;20.10;28.80;;;;;;5009548;28;21344;-69
2023/08/27 08:40:12;;;;;;;5.83;2.00;;;20.10;28.90;;;;;;5006954;28;20459;-69
2023/08/27 08:42:47;;;;;;;5.90;2.03;;;20.00;29.10;;;;;;5009691;28;20534;-69
2023/08/27 08:45:20;;;;;;;7.67;2.57;;;19.90;29.30;;;;;;5009581;28;20462;-69
2023/08/27 08:47:50;;;;;;;5.00;1.90;;;19.90;29.50;;;;;;5007955;28;20467;-69
2023/08/27 08:50:19;;;;;;;5.43;2.00;;;19.80;29.60;;;;;;5005138;28;20475;-70
2023/08/27 08:52:47;;;;;;;5.53;2.20;;;19.70;29.80;;;;;;5009728;28;20555;-69
2023/08/27 08:55:16;;;;;;;3.90;1.77;;;19.70;29.90;;;;;;5010186;28;20460;-69
2023/08/27 08:57:48;;;;;;;5.00;2.10;;;19.70;30.30;;;;;;5010879;28;20460;-70
2023/08/27 09:00:16;;;;;;;4.50;2.00;;;19.70;30.60;;;;;;5008902;28;20462;-69
2023/08/27 09:02:43;;;;;;;5.50;2.30;;;19.70;31.10;;;;;;5009227;28;20511;-69
2023/08/27 09:05:12;;;;;;;4.40;1.50;;;19.80;31.30;;;;;;4998638;28;20503;-69
2023/08/27 09:07:39;;;;;;;5.50;1.80;;;19.90;31.10;;;;;;5009810;28;20460;-69
2023/08/27 09:10:09;;;;;;;4.80;2.23;;;19.90;30.90;;;;;;5005125;28;20488;-69
2023/08/27 09:12:39;;;;;;;5.13;1.83;;;20.00;30.40;;;;;;5009777;28;20448;-69
2023/08/27 09:15:07;;;;;;;4.10;1.60;;;20.10;30.40;;;;;;5009460;28;20460;-69
2023/08/27 09:17:34;;;;;;;4.67;1.90;;;20.10;30.40;;;;;;5007017;28;20465;-69
2023/08/27 09:20:01;;;;;;;4.60;2.07;;;20.10;30.20;;;;;;5009684;28;20462;-69
2023/08/27 09:22:29;;;;;;;4.50;1.83;;;20.20;30.00;;;;;;5008281;28;20480;-70
2023/08/27 09:24:56;;;;;;;4.60;2.07;;;20.30;29.70;;;;;;5008905;28;20463;-69
2023/08/27 09:27:23;;;;;;;5.93;2.30;;;20.40;29.40;;;;;;5005059;28;20463;-69
2023/08/27 09:29:52;;;;;;;5.50;1.90;;;20.50;29.20;;;;;;5004282;28;20464;-70
2023/08/27 09:32:23;;;;;;;6.13;2.57;;;20.50;28.80;;;;;;5009314;28;21340;-69
2023/08/27 09:34:57;;;;;;;4.60;2.03;;;20.50;28.60;;;;;;5001834;28;20488;-69
2023/08/27 09:37:26;;;;;;;4.70;2.30;;;20.50;28.50;;;;;;5009098;28;20472;-69
2023/08/27 09:39:55;;;;;;;5.10;2.27;;;20.50;28.00;;;;;;5005223;28;20475;-70
2023/08/27 09:42:22;;;;;;;5.37;2.00;;;20.50;27.80;;;;;;5008603;28;20476;-70
2023/08/27 09:44:50;;;;;;;5.07;2.30;;;20.50;27.60;;;;;;5006468;28;20484;-69
2023/08/27 09:47:16;;;;;;;4.57;1.90;;;20.40;27.50;;;;;;5009191;28;20463;-69
2023/08/27 09:49:45;;;;;;;5.50;2.17;;;20.30;27.80;;;;;;5007189;28;20463;-69
2023/08/27 09:52:11;;;;;;;4.20;1.80;;;20.30;27.70;;;;;;5008465;28;20610;-69
2023/08/27 09:54:38;;;;;;;4.40;2.03;;;20.20;28.10;;;;;;5006824;28;20476;-69
2023/08/27 09:57:17;;;;;;;4.37;1.60;;;20.20;28.10;;;;;;5006087;28;20456;-70
2023/08/27 09:59:44;;;;;;;3.70;1.50;;;20.10;28.40;;;;;;5007814;28;20456;-69
2023/08/27 10:02:13;;;;;;;5.20;2.27;;;20.10;28.60;;;;;;5009665;28;20487;-69
2023/08/27 10:04:49;;;;;;;4.80;1.93;;;20.10;29.00;;;;;;5006660;28;21121;-69
2023/08/27 10:07:17;;;;;;;5.73;2.60;;;20.10;29.20;;;;;;5007473;28;20980;-69
2023/08/27 10:09:43;;;;;;;5.63;1.70;;;20.00;29.30;;;;;;5008304;28;20828;-70
2023/08/27 10:12:12;;;;;;;4.97;2.63;;;20.00;29.40;;;;;;5008321;28;20483;-69
2023/08/27 10:14:41;;;;;;;12.73;2.43;;;20.00;29.70;;;;;;5003085;28;20479;-69
2023/08/27 10:17:07;;;;;;;4.30;2.00;;;20.00;30.00;;;;;;5006901;28;20507;-69
2023/08/27 10:19:36;;;;;;;4.80;2.27;;;20.00;30.30;;;;;;5006700;28;20533;-70
2023/08/27 10:22:05;;;;;;;6.90;3.07;;;20.00;30.40;;;;;;5006947;28;20484;-69
2023/08/27 10:24:32;;;;;;;4.70;2.20;;;19.90;30.50;;;;;;5007395;28;20857;-69
2023/08/27 10:26:59;;;;;;;5.87;1.60;;;19.90;30.50;;;;;;5006039;28;20471;-70
2023/08/27 10:29:29;;;;;;;5.00;2.70;;;19.90;30.40;;;;;;5005270;28;20463;-70
2023/08/27 10:31:56;;;;;;;4.43;1.77;;;19.90;30.70;;;;;;5005911;28;21049;-69
2023/08/27 10:34:24;;;;;;;6.87;2.10;;;20.00;30.00;;;;;;5008282;28;20499;-69
2023/08/27 10:36:52;;;;;;;4.37;1.93;;;19.90;29.80;;;;;;5004905;28;20468;-70
2023/08/27 10:39:23;;;;;;;4.40;1.70;;;19.90;28.90;;;;;;5008672;28;20475;-70
2023/08/27 10:41:50;;;;;;;4.60;2.20;;;19.90;29.20;;;;;;5007628;28;20483;-69
2023/08/27 10:44:19;;;;;;;4.73;2.23;;;19.90;29.50;;;;;;5004606;28;20956;-69
2023/08/27 10:47:09;;;;;;;4.53;2.07;;;19.90;29.60;;;;;;5007759;28;20806;-69
2023/08/27 10:49:37;;;;;;;4.47;1.80;;;19.90;29.80;;;;;;5008335;28;21218;-69
2023/08/27 10:52:13;;;;;;;4.30;1.73;;;19.90;29.80;;;;;;5008432;28;20965;-69
2023/08/27 10:54:40;;;;;;;4.40;1.87;;;20.00;29.00;;;;;;5008606;28;20479;-69
2023/08/27 10:57:18;;;;;;;3.90;1.80;;;19.90;29.20;;;;;;5006736;28;20460;-69
2023/08/27 10:59:45;;;;;;;3.80;1.40;;;19.90;29.10;;;;;;5005641;28;20467;-69
2023/08/27 11:02:15;;;;;;;4.90;2.07;;;19.90;29.10;;;;;;5007613;28;20472;-69
2023/08/27 11:04:44;;;;;;;5.90;2.43;;;19.90;29.50;;;;;;5007698;28;20912;-69
2023/08/27 11:07:10;;;;;;;3.90;1.87;;;20.00;28.30;;;;;;5008763;28;20460;-69
2023/08/27 11:09:46;;;;;;;4.57;1.90;;;20.00;27.60;;;;;;5009025;28;20464;-69
2023/08/27 11:12:22;;;;;;;5.20;2.10;;;20.00;28.50;;;;;;5010704;28;20451;-69
2023/08/27 11:14:49;;;;;;;6.00;1.97;;;19.90;28.50;;;;;;5005229;28;20533;-69
2023/08/27 11:17:25;;;;;;;4.27;1.83;;;19.90;28.70;;;;;;5010457;28;20460;-69
2023/08/27 11:19:53;;;;;;;4.87;1.80;;;19.90;27.90;;;;;;5010091;28;20461;-69
2023/08/27 11:22:21;;;;;;;4.37;1.93;;;19.90;27.80;;;;;;5010660;28;20487;-69
2023/08/27 11:24:49;;;;;;;5.40;2.20;;;19.90;27.90;;;;;;5010942;28;20491;-69
2023/08/27 11:27:17;;;;;;;5.50;2.10;;;19.90;28.40;;;;;;5009177;28;20480;-69
2023/08/27 11:29:47;;;;;;;4.60;2.27;;;19.90;28.40;;;;;;5010070;28;20463;-69
2023/08/27 11:32:15;;;;;;;5.20;2.37;;;20.00;27.60;;;;;;5009494;28;20879;-69
2023/08/27 11:34:44;;;;;;;6.07;2.47;;;20.00;27.40;;;;;;5008247;28;20475;-69
2023/08/27 11:37:11;;;;;;;6.27;2.60;;;20.10;27.70;;;;;;5011719;28;20960;-69
2023/08/27 11:39:39;;;;;;;6.20;2.40;;;20.10;26.80;;;;;;5007468;28;20471;-69
2023/08/27 11:42:11;;;;;;;4.53;2.30;;;20.00;27.00;;;;;;5011456;28;21030;-68
2023/08/27 11:44:50;;;;;;;3.90;1.60;;;20.00;27.60;;;;;;5008286;28;20574;-68
2023/08/27 11:47:17;;;;;;;4.93;2.23;;;20.00;27.40;;;;;;5007509;28;20529;-69
2023/08/27 11:49:45;;;;;;;5.40;2.07;;;19.90;27.50;;;;;;5006536;28;20482;-69
2023/08/27 11:52:13;;;;;;;4.97;2.50;;;19.90;27.20;;;;;;5006299;28;20448;-69
2023/08/27 11:54:41;;;;;;;6.10;2.13;;;19.80;27.30;;;;;;5007488;28;20476;-69
2023/08/27 11:57:09;;;;;;;6.00;2.03;;;19.80;27.90;;;;;;5007155;28;20472;-69
2023/08/27 11:59:38;;;;;;;6.37;2.40;;;19.80;28.20;;;;;;5012521;28;21276;-69
2023/08/27 12:02:06;;;;;;;4.50;2.03;;;19.80;28.40;;;;;;5003247;28;20480;-69
2023/08/27 12:04:33;;;;;;;4.43;2.10;;;19.70;28.20;;;;;;5005109;28;20606;-69
2023/08/27 12:07:05;;;;;;;5.17;2.27;;;19.70;27.90;;;;;;5009811;28;21019;-69
2023/08/27 12:09:33;;;;;;;5.57;2.07;;;19.70;28.40;;;;;;5010392;28;20863;-69
2023/08/27 12:12:02;;;;;;;4.67;2.13;;;19.70;28.20;;;;;;5012761;28;20448;-69
2023/08/27 12:14:29;;;;;;;5.60;2.70;;;19.70;28.60;;;;;;5010574;28;20483;-69
2023/08/27 12:17:01;;;;;;;5.13;1.80;;;19.70;29.40;;;;;;5005939;28;20463;-69
2023/08/27 12:19:28;;;;;;;5.47;2.37;;;19.70;28.80;;;;;;5006814;28;20463;-69
2023/08/27 12:21:58;;;;;;;4.37;2.00;;;19.70;28.80;;;;;;5014589;28;20959;-69
2023/08/27 12:24:34;;;;;;;4.60;1.87;;;19.70;28.90;;;;;;5006831;28;20894;-69
2023/08/27 12:27:02;;;;;;;4.50;1.80;;;19.60;28.90;;;;;;5010622;28;20467;-69
2023/08/27 12:29:30;;;;;;;6.87;2.60;;;19.60;28.90;;;;;;5009206;28;20456;-69
2023/08/27 12:31:58;;;;;;;5.00;2.30;;;19.60;29.10;;;;;;5011033;28;20499;-69
2023/08/27 12:34:35;;;;;;;4.40;1.80;;;19.60;29.30;;;;;;5009195;28;20480;-69
2023/08/27 12:37:03;;;;;;;4.53;2.00;;;19.50;29.60;;;;;;5024682;23;20463;-64
2023/08/27 12:39:30;;;;;;;4.30;2.10;;;19.60;29.80;;;;;;4985895;28;20563;-64
2023/08/27 12:41:58;;;;;;;4.17;1.70;;;19.50;29.90;;;;;;4996162;28;21078;-66
2023/08/27 12:44:24;;;;;;;4.33;1.60;;;19.50;29.90;;;;;;4991620;28;20481;-64
2023/08/27 12:46:51;;;;;;;5.10;1.90;;;19.50;30.00;;;;;;4991415;28;20801;-64
2023/08/27 12:49:18;;;;;;;4.30;1.80;;;19.60;30.20;;;;;;4990728;28;20463;-64